Time;durP1;ratioP1;P1;durP2;ratioP2;P2;SDS_P1;SDS_P2;PMS_P1;PMS_P2;Temp;Humidity;BMP_temperature;BMP_pressure;BME280_temperature;BME280_humidity;BME280_pressure;Samples;Min_cycle;Max_cycle;Signal;HPM_P1;HPM_P2
2022/11/17 00:00:16;;;;;;;9.30;5.43;;;;;;;-0.04;68.46;99149.09;5028214;28;20037;-51
2022/11/17 00:02:41;;;;;;;11.00;5.97;;;;;;;0.07;68.69;99155.88;5040422;28;20040;-51
2022/11/17 00:05:07;;;;;;;13.95;5.90;;;;;;;0.13;68.44;99150.78;5023649;28;20110;-53
2022/11/17 00:07:33;;;;;;;10.27;5.65;;;;;;;0.15;68.85;99157.59;4984220;28;20110;-54
2022/11/17 00:09:59;;;;;;;13.90;6.57;;;;;;;-0.16;68.70;99126.09;5024710;28;20163;-52
2022/11/17 00:15:10;;;;;;;14.52;6.90;;;;;;;-0.12;69.30;99124.41;5019365;28;20132;-52
2022/11/17 00:17:35;;;;;;;13.02;6.10;;;;;;;0.07;69.56;99150.78;5018419;28;20125;-51
2022/11/17 00:22:47;;;;;;;12.98;6.68;;;;;;;-0.18;69.04;99112.50;5020176;28;20049;-49
2022/11/17 00:25:12;;;;;;;14.57;6.43;;;;;;;0.02;69.40;99135.47;5019391;28;20045;-51
2022/11/17 00:27:38;;;;;;;12.50;6.70;;;;;;;-0.08;69.47;99111.63;5018170;28;20045;-50
2022/11/17 00:30:05;;;;;;;12.90;6.75;;;;;;;0.14;69.55;99135.44;5020133;28;20086;-55
2022/11/17 00:35:16;;;;;;;15.15;7.53;;;;;;;-0.25;70.18;99127.81;5022336;28;20424;-54
2022/11/17 00:38:14;;;;;;;11.18;6.35;;;;;;;-0.33;70.69;99132.94;5018637;28;20052;-51
2022/11/17 00:40:28;;;;;;;15.27;7.20;;;;;;;-0.23;70.72;99132.06;5027135;28;20091;-55
2022/11/17 00:42:54;;;;;;;15.23;6.97;;;;;;;-0.22;70.59;99130.38;5027637;28;20049;-55
2022/11/17 00:45:19;;;;;;;14.20;6.80;;;;;;;-0.23;70.77;99119.31;5025874;28;20664;-52
2022/11/17 00:47:46;;;;;;;13.38;7.13;;;;;;;-0.18;71.02;99111.63;5041798;28;20103;-51
2022/11/17 00:50:12;;;;;;;20.17;7.15;;;;;;;-0.09;71.02;99120.13;5042223;28;20037;-54
2022/11/17 00:52:38;;;;;;;15.50;7.35;;;;;;;-0.02;70.83;99114.19;5028817;28;20425;-53
2022/11/17 00:55:04;;;;;;;14.98;7.05;;;;;;;-0.24;70.80;99058.00;5029011;28;20033;-50
2022/11/17 00:57:30;;;;;;;14.82;7.50;;;;;;;0.06;70.93;99110.75;5028870;28;20037;-52
2022/11/17 00:59:56;;;;;;;18.23;8.18;;;;;;;0.06;71.37;99114.16;5026948;28;20566;-50
2022/11/17 01:02:22;;;;;;;21.83;8.15;;;;;;;0.10;71.68;99105.66;5012363;28;20037;-51
2022/11/17 01:04:48;;;;;;;16.05;8.27;;;;;;;0.05;71.75;99109.06;5026379;28;20055;-51
2022/11/17 01:07:13;;;;;;;17.75;8.30;;;;;;;0.03;71.94;99105.66;5025704;28;20065;-49
2022/11/17 01:09:39;;;;;;;17.70;8.98;;;;;;;0.07;72.67;99102.22;5043441;28;20538;-52
2022/11/17 01:12:06;;;;;;;17.45;8.15;;;;;;;0.04;72.64;99094.59;5019916;28;20132;-49
2022/11/17 01:14:31;;;;;;;22.55;8.77;;;;;;;0.03;73.11;99091.16;4985177;28;20051;-54
2022/11/17 01:16:57;;;;;;;17.85;8.13;;;;;;;0.06;73.19;99093.72;5021221;28;20071;-50
2022/11/17 01:19:23;;;;;;;15.57;7.55;;;;;;;0.07;73.96;99085.19;5026277;28;20072;-50
2022/11/17 01:21:49;;;;;;;18.40;7.90;;;;;;;-0.03;73.52;99088.63;5027227;28;20041;-52
2022/11/17 01:24:16;;;;;;;18.58;7.50;;;;;;;-0.12;73.99;99081.84;5010923;28;20038;-49
2022/11/17 01:26:43;;;;;;;19.55;8.45;;;;;;;-0.14;74.27;99082.66;5027121;28;20562;-48
2022/11/17 01:29:15;;;;;;;16.13;8.02;;;;;;;-0.12;74.16;99080.97;4994925;28;20045;-53
2022/11/17 01:31:42;;;;;;;16.05;8.00;;;;;;;-0.08;74.58;99080.13;5027455;28;20129;-51
2022/11/17 01:34:09;;;;;;;19.65;8.20;;;;;;;-0.22;74.58;99046.09;5027464;28;20045;-55
2022/11/17 01:39:24;;;;;;;;;;;;;;;-0.23;74.94;99072.47;5027957;28;20041;-50
2022/11/17 01:41:51;;;;;;;16.70;8.25;;;;;;;-0.40;75.16;99056.31;5010894;28;19974;-50
2022/11/17 01:44:52;;;;;;;15.35;6.82;;;;;;;-0.35;75.30;99067.38;5010798;28;20087;-52
2022/11/17 01:47:24;;;;;;;18.52;7.95;;;;;;;-0.53;75.88;99058.03;5028469;28;20132;-52
2022/11/17 01:49:55;;;;;;;16.00;7.65;;;;;;;-0.69;75.43;99024.00;5043735;28;20156;-51
2022/11/17 01:52:22;;;;;;;16.88;7.50;;;;;;;-0.46;75.59;99052.06;5026972;28;20057;-55
2022/11/17 01:54:49;;;;;;;17.23;7.95;;;;;;;-0.38;75.50;99057.16;5043670;28;20456;-50
2022/11/17 01:57:23;;;;;;;15.80;7.55;;;;;;;-0.37;75.83;99054.63;5043828;28;20045;-54
2022/11/17 01:59:55;;;;;;;15.98;8.43;;;;;;;-0.41;75.45;99055.47;5043666;28;20103;-51
2022/11/17 02:02:21;;;;;;;16.88;8.20;;;;;;;-0.42;75.80;99053.78;5027141;28;20044;-55
2022/11/17 02:05:05;;;;;;;16.55;7.80;;;;;;;-0.50;75.84;99050.34;5028477;28;20037;-48
2022/11/17 02:07:33;;;;;;;15.32;7.50;;;;;;;-0.60;76.59;99056.31;5027631;28;20513;-56
2022/11/17 02:10:00;;;;;;;17.80;8.10;;;;;;;-0.51;76.56;99048.66;5024566;28;20041;-53
2022/11/17 02:12:27;;;;;;;15.57;6.63;;;;;;;-0.65;76.38;99051.22;5026844;28;20079;-52
2022/11/17 02:14:54;;;;;;;12.88;7.18;;;;;;;-0.70;76.98;99050.38;5026899;28;20532;-54
2022/11/17 02:17:21;;;;;;;16.63;7.53;;;;;;;-0.70;76.89;99054.63;5025184;28;20042;-50
2022/11/17 02:20:01;;;;;;;16.10;7.43;;;;;;;-0.80;77.08;99050.38;5020065;28;20067;-53
2022/11/17 02:23:04;;;;;;;14.90;7.22;;;;;;;-0.84;77.54;99052.06;5010799;28;20034;-49
2022/11/17 02:25:47;;;;;;;14.02;5.97;;;;;;;-0.88;77.42;99042.69;5010786;28;20101;-53
2022/11/17 02:28:25;;;;;;;16.08;7.25;;;;;;;-0.98;77.82;99044.38;5010946;28;20046;-53
2022/11/17 02:31:01;;;;;;;13.20;5.80;;;;;;;-0.99;77.58;99034.16;5010686;28;20046;-53
2022/11/17 02:33:37;;;;;;;12.77;5.72;;;;;;;-1.08;78.04;99026.50;5011826;28;20136;-54
2022/11/17 02:36:17;;;;;;;15.70;6.80;;;;;;;-1.02;77.93;99029.06;4998799;28;20052;-54
2022/11/17 02:38:54;;;;;;;18.45;7.25;;;;;;;-1.02;78.16;99027.38;5012855;28;20041;-49
2022/11/17 02:41:26;;;;;;;16.88;7.85;;;;;;;-0.97;77.86;99027.38;5010618;28;20115;-52
2022/11/17 02:44:11;;;;;;;20.83;8.45;;;;;;;-0.96;78.13;99019.75;5026791;28;20146;-50
2022/11/17 02:46:46;;;;;;;15.40;7.00;;;;;;;-0.82;77.91;99018.88;5011207;28;20053;-55
2022/11/17 02:49:19;;;;;;;17.80;7.47;;;;;;;-0.84;78.18;99016.34;5018963;28;20509;-54
2022/11/17 02:51:47;;;;;;;16.35;7.95;;;;;;;-0.76;77.90;99016.34;5006238;28;20517;-52
2022/11/17 02:54:13;;;;;;;17.77;7.57;;;;;;;-0.79;77.78;98983.19;5013097;28;20045;-50
2022/11/17 02:56:40;;;;;;;22.88;8.45;;;;;;;-0.62;77.49;99004.41;5017699;28;20117;-56
2022/11/17 02:59:07;;;;;;;21.85;8.68;;;;;;;-0.71;77.80;99002.72;5036585;28;20053;-55
2022/11/17 03:01:57;;;;;;;17.50;8.48;;;;;;;-0.68;77.86;98999.34;5028483;28;20029;-53
2022/11/17 03:04:26;;;;;;;13.93;6.30;;;;;;;-0.84;78.14;99000.19;5028356;28;20033;-50
2022/11/17 03:07:13;;;;;;;17.87;8.47;;;;;;;-1.02;78.44;98998.47;5030748;28;20041;-51
2022/11/17 03:09:55;;;;;;;18.40;8.57;;;;;;;-1.11;78.87;98996.78;5037823;28;20041;-49
2022/11/17 03:12:25;;;;;;;18.63;8.07;;;;;;;-1.07;78.91;99001.00;5049352;28;20076;-50
2022/11/17 03:15:02;;;;;;;21.73;8.63;;;;;;;-1.12;79.14;98994.22;5049494;28;20044;-51
2022/11/17 03:17:34;;;;;;;23.15;9.50;;;;;;;-1.23;79.37;98991.63;5050753;28;20099;-48
2022/11/17 03:20:09;;;;;;;22.00;9.20;;;;;;;-1.18;79.86;98986.53;5032808;28;20028;-49
2022/11/17 03:22:54;;;;;;;23.65;9.07;;;;;;;-1.12;79.86;98972.09;5050836;28;20043;-49
2022/11/17 03:25:22;;;;;;;19.77;9.65;;;;;;;-1.05;79.12;98962.78;5032847;28;20047;-48
2022/11/17 03:27:50;;;;;;;18.48;9.25;;;;;;;-0.92;79.27;98990.81;5014680;28;20048;-52
2022/11/17 03:30:18;;;;;;;19.45;9.90;;;;;;;-0.88;79.21;98992.50;5030061;28;20592;-54
2022/11/17 03:32:49;;;;;;;26.17;10.90;;;;;;;-0.77;79.16;98989.97;5013548;28;20114;-54
2022/11/17 03:35:24;;;;;;;27.27;12.07;;;;;;;-1.07;79.29;98934.72;5029369;28;20213;-49
2022/11/17 03:37:56;;;;;;;30.35;12.07;;;;;;;-0.66;79.14;98990.81;5027574;28;20037;-48
2022/11/17 03:40:25;;;;;;;31.92;13.02;;;;;;;-0.57;79.08;98992.50;5029131;28;20048;-53
2022/11/17 03:42:57;;;;;;;29.88;12.73;;;;;;;-0.53;78.98;98992.50;5012429;28;20464;-52
2022/11/17 03:45:24;;;;;;;28.80;13.27;;;;;;;-0.49;78.73;98983.13;5012175;28;20064;-52
2022/11/17 03:47:56;;;;;;;28.75;12.93;;;;;;;-0.54;78.38;98978.03;5012673;28;20152;-50
2022/11/17 03:50:43;;;;;;;27.70;11.65;;;;;;;-0.54;78.53;98979.75;5030863;28;20509;-50
2022/11/17 03:53:09;;;;;;;29.10;11.73;;;;;;;-0.55;78.43;98973.78;5048595;28;20037;-50
2022/11/17 03:56:04;;;;;;;25.70;12.25;;;;;;;-0.49;78.56;98972.94;5032202;28;20160;-53
2022/11/17 03:58:32;;;;;;;30.02;12.32;;;;;;;-0.53;78.20;98986.56;5049250;28;20471;-55
2022/11/17 04:01:00;;;;;;;31.23;11.73;;;;;;;-0.75;78.47;98977.22;5027001;28;20720;-51
2022/11/17 04:03:31;;;;;;;27.60;12.18;;;;;;;-0.87;79.07;98978.06;5028766;28;20045;-48
2022/11/17 04:05:56;;;;;;;27.42;11.45;;;;;;;-0.86;79.31;98970.41;5011515;28;20053;-51
2022/11/17 04:08:24;;;;;;;21.88;10.95;;;;;;;-0.83;79.10;98979.75;5028696;28;20048;-49
2022/11/17 04:16:19;;;;;;;23.30;10.18;;;;;;;-0.67;78.58;98971.25;5050035;28;20061;-54
2022/11/17 04:18:45;;;;;;;22.55;10.50;;;;;;;-0.62;78.63;98959.31;5017247;28;20540;-51
2022/11/17 04:21:11;;;;;;;23.55;9.90;;;;;;;-0.46;78.36;98961.00;5028607;28;20045;-55
2022/11/17 04:23:37;;;;;;;18.90;9.93;;;;;;;-0.56;78.51;98935.50;5029860;28;20651;-56
2022/11/17 04:28:49;;;;;;;21.60;10.35;;;;;;;-0.49;78.46;98958.47;5028521;28;20037;-52
2022/11/17 04:31:17;;;;;;;22.13;10.73;;;;;;;-0.40;78.57;98960.13;5028416;28;20806;-52
2022/11/17 04:33:52;;;;;;;22.95;10.30;;;;;;;-0.35;78.59;98967.78;5028600;28;20428;-52
2022/11/17 04:36:19;;;;;;;22.67;10.13;;;;;;;-0.39;78.50;98956.75;5028407;28;20038;-49
2022/11/17 04:38:50;;;;;;;22.52;10.23;;;;;;;-0.32;78.68;98961.00;5027394;28;20044;-56
2022/11/17 04:44:03;;;;;;;24.17;10.23;;;;;;;-0.33;78.41;98955.88;5028334;28;20525;-55
2022/11/17 04:46:30;;;;;;;22.42;10.77;;;;;;;-0.35;78.81;98962.69;5028075;28;20048;-55
2022/11/17 04:48:56;;;;;;;19.23;10.73;;;;;;;-0.33;78.48;98963.53;5027915;28;20064;-54
2022/11/17 04:51:23;;;;;;;27.13;11.45;;;;;;;-0.32;78.24;98957.56;5015328;28;20041;-51
2022/11/17 04:53:50;;;;;;;22.15;10.57;;;;;;;-0.30;78.76;98966.91;5023858;28;20049;-54
2022/11/17 04:56:18;;;;;;;22.40;11.02;;;;;;;-0.29;78.76;98963.53;5027127;28;20045;-44
2022/11/17 04:58:44;;;;;;;24.55;11.30;;;;;;;-0.50;78.41;98927.81;5023856;28;20049;-54
2022/11/17 05:01:14;;;;;;;20.05;10.40;;;;;;;-0.54;78.87;98933.78;5024245;28;20536;-55
2022/11/17 05:03:41;;;;;;;28.88;12.13;;;;;;;-0.41;78.76;98963.53;5012696;28;20050;-51
2022/11/17 05:06:09;;;;;;;28.70;11.82;;;;;;;-0.37;78.69;98959.28;5021321;28;20049;-54
2022/11/17 05:08:37;;;;;;;27.63;11.63;;;;;;;-0.37;78.52;98957.59;4994729;28;20045;-50
2022/11/17 05:13:49;;;;;;;22.98;10.68;;;;;;;-0.61;78.35;98909.97;5024894;28;20045;-57
2022/11/17 05:18:59;;;;;;;21.85;11.32;;;;;;;-0.21;78.46;98958.41;5043466;28;20045;-49
2022/11/17 05:21:25;;;;;;;27.58;10.88;;;;;;;-0.32;78.16;98935.44;5011419;28;20038;-52
2022/11/17 05:23:54;;;;;;;24.83;12.00;;;;;;;-0.15;78.18;98958.34;4977793;28;20033;-54
2022/11/17 05:26:23;;;;;;;27.33;11.27;;;;;;;-0.17;78.10;98955.84;5010479;28;20068;-54
2022/11/17 05:28:49;;;;;;;25.10;11.40;;;;;;;-0.18;77.91;98954.13;5024816;28;20564;-50
2022/11/17 05:31:15;;;;;;;27.95;11.45;;;;;;;-0.14;78.20;98957.50;5028692;28;20048;-55
2022/11/17 05:33:42;;;;;;;28.75;11.32;;;;;;;-0.27;78.14;98936.28;5010960;28;20438;-50
2022/11/17 05:36:08;;;;;;;43.17;14.80;;;;;;;-0.14;78.39;98953.25;5027883;28;20041;-51
2022/11/17 05:38:34;;;;;;;25.85;12.43;;;;;;;-0.12;78.20;98961.78;5015009;28;20120;-56
2022/11/17 05:41:00;;;;;;;24.65;11.98;;;;;;;-0.06;78.35;98963.47;5021836;28;20084;-54
2022/11/17 05:43:26;;;;;;;22.67;11.60;;;;;;;-0.02;78.34;98954.91;5016286;28;20057;-53
2022/11/17 05:45:52;;;;;;;20.85;10.63;;;;;;;-0.01;78.30;98956.63;5028836;28;20045;-54
2022/11/17 05:48:18;;;;;;;22.65;11.90;;;;;;;0.04;78.06;98959.16;5013538;28;20099;-53
2022/11/17 05:50:44;;;;;;;22.85;11.68;;;;;;;-0.14;78.11;98921.75;5042797;28;20045;-50
2022/11/17 05:53:10;;;;;;;22.58;11.55;;;;;;;0.03;77.93;98947.22;5018865;28;20041;-53
2022/11/17 05:55:35;;;;;;;25.35;11.10;;;;;;;0.04;77.90;98954.91;5031024;28;20037;-53
2022/11/17 05:58:10;;;;;;;23.38;11.50;;;;;;;0.06;77.85;98955.72;5024284;28;20049;-52
2022/11/17 06:00:37;;;;;;;23.45;10.27;;;;;;;-0.12;77.82;98920.06;5030419;28;20132;-54
2022/11/17 06:03:15;;;;;;;25.17;11.50;;;;;;;0.11;78.04;98942.94;4998532;28;20049;-55
2022/11/17 06:05:41;;;;;;;19.65;9.77;;;;;;;0.15;77.78;98952.31;5013171;28;20037;-57
2022/11/17 06:08:08;;;;;;;23.88;10.68;;;;;;;0.16;77.66;98947.16;4998644;28;20073;-51
2022/11/17 06:10:34;;;;;;;29.60;11.93;;;;;;;0.22;77.59;98949.69;4980443;28;20133;-56
2022/11/17 06:13:00;;;;;;;18.85;9.52;;;;;;;0.25;77.53;98946.28;5030034;28;20053;-51
2022/11/17 06:15:26;;;;;;;18.70;9.40;;;;;;;0.25;77.61;98944.59;5013226;28;20048;-55
2022/11/17 06:18:05;;;;;;;22.08;10.43;;;;;;;0.25;77.27;98936.91;5030862;28;20081;-53
2022/11/17 06:20:37;;;;;;;19.17;10.48;;;;;;;-0.01;77.49;98896.16;5044805;28;20424;-53
2022/11/17 06:23:05;;;;;;;23.55;11.07;;;;;;;0.11;77.29;98915.66;5030921;28;20077;-55
2022/11/17 06:25:32;;;;;;;32.17;11.93;;;;;;;0.25;77.47;98948.84;5020173;28;20045;-54
2022/11/17 06:28:05;;;;;;;20.13;9.80;;;;;;;0.20;77.37;98942.91;5030693;28;20055;-52
2022/11/17 06:30:31;;;;;;;20.13;10.80;;;;;;;0.15;77.34;98948.03;5045249;28;20127;-50
2022/11/17 06:32:58;;;;;;;22.33;11.45;;;;;;;0.12;77.21;98942.06;5030915;28;20118;-56
2022/11/17 06:35:24;;;;;;;20.77;10.52;;;;;;;0.07;77.50;98948.91;4997687;28;20040;-53
2022/11/17 06:37:50;;;;;;;26.40;12.38;;;;;;;0.03;77.28;98940.41;5030629;28;20049;-52
2022/11/17 06:40:16;;;;;;;24.10;12.88;;;;;;;0.01;77.42;98942.13;5027458;28;20045;-51
2022/11/17 06:45:26;;;;;;;28.05;12.63;;;;;;;-0.02;76.95;98937.03;5029775;28;20061;-48
2022/11/17 06:47:52;;;;;;;24.83;13.10;;;;;;;-0.03;76.85;98943.84;5030771;28;20049;-54
2022/11/17 06:50:19;;;;;;;27.45;13.38;;;;;;;-0.29;77.48;98896.28;5026676;28;20079;-53
2022/11/17 06:52:45;;;;;;;33.50;12.82;;;;;;;-0.01;77.48;98944.69;5018019;28;20088;-54
2022/11/17 06:55:11;;;;;;;26.23;12.38;;;;;;;0.00;77.33;98948.13;5021962;28;20501;-53
2022/11/17 06:57:38;;;;;;;27.63;13.75;;;;;;;-0.02;77.44;98943.00;5010838;28;20069;-54
2022/11/17 07:00:05;;;;;;;26.30;13.77;;;;;;;0.02;77.29;98942.97;5005931;28;20116;-53
2022/11/17 07:02:31;;;;;;;24.70;13.00;;;;;;;0.03;77.17;98947.22;5013442;28;20060;-52
2022/11/17 07:04:57;;;;;;;30.95;13.20;;;;;;;0.08;77.26;98940.41;5030346;28;20539;-55
2022/11/17 07:07:24;;;;;;;27.48;13.48;;;;;;;0.10;77.42;98948.91;5029455;28;20128;-55
2022/11/17 07:09:49;;;;;;;36.13;14.95;;;;;;;0.07;77.32;98939.53;5031788;28;20592;-52
2022/11/17 07:12:15;;;;;;;28.83;13.95;;;;;;;0.12;77.05;98944.63;5013078;28;20037;-56
2022/11/17 07:14:41;;;;;;;33.30;15.27;;;;;;;0.19;77.00;98954.84;5030661;28;20052;-51
2022/11/17 07:17:07;;;;;;;37.83;17.50;;;;;;;0.10;76.74;98952.31;5029228;28;20053;-55
2022/11/17 07:19:33;;;;;;;38.80;17.40;;;;;;;0.10;76.69;98948.91;5029240;28;20046;-53
2022/11/17 07:21:59;;;;;;;33.92;17.20;;;;;;;0.16;76.72;98939.50;5007968;28;20538;-51
2022/11/17 07:24:25;;;;;;;38.85;17.77;;;;;;;0.14;76.38;98942.94;5009432;28;20160;-53
2022/11/17 07:26:51;;;;;;;34.47;16.48;;;;;;;0.25;76.38;98953.97;5021583;28;20037;-51
2022/11/17 07:29:17;;;;;;;42.60;17.63;;;;;;;0.28;76.49;98954.78;5028691;28;20041;-53
2022/11/17 07:31:43;;;;;;;40.75;17.60;;;;;;;0.33;76.17;98955.59;5030506;28;20045;-55
2022/11/17 07:34:09;;;;;;;36.30;16.73;;;;;;;0.39;75.79;98953.03;5029316;28;20037;-56
2022/11/17 07:36:34;;;;;;;37.38;18.25;;;;;;;0.44;75.53;98947.88;5029297;28;20065;-54
2022/11/17 07:39:01;;;;;;;30.27;16.05;;;;;;;0.52;75.77;98948.69;5030461;28;20513;-54
2022/11/17 07:41:27;;;;;;;31.83;15.10;;;;;;;0.24;75.14;98904.53;5027246;28;20045;-51
2022/11/17 07:43:52;;;;;;;36.40;17.13;;;;;;;0.61;74.76;98965.69;5045357;28;20053;-50
2022/11/17 07:46:18;;;;;;;32.97;16.13;;;;;;;0.39;74.39;98929.16;5029195;28;20037;-52
2022/11/17 07:48:44;;;;;;;34.80;15.40;;;;;;;0.31;74.16;98915.59;5012539;28;20091;-50
2022/11/17 07:51:12;;;;;;;31.85;15.15;;;;;;;0.66;74.44;98966.50;5014585;28;20796;-52
2022/11/17 07:53:38;;;;;;;28.40;15.18;;;;;;;0.68;74.14;98962.25;5029110;28;20033;-53
2022/11/17 07:56:09;;;;;;;30.65;14.55;;;;;;;0.73;73.56;98955.38;5028481;28;20040;-50
2022/11/17 07:58:36;;;;;;;29.98;14.45;;;;;;;0.62;73.27;98924.75;5028821;28;20037;-54
2022/11/17 08:01:09;;;;;;;25.85;12.80;;;;;;;0.81;73.01;98951.06;5028397;28;20187;-54
2022/11/17 08:03:36;;;;;;;27.60;12.10;;;;;;;0.84;72.93;98959.53;5029494;28;20045;-51
2022/11/17 08:06:03;;;;;;;33.97;14.75;;;;;;;0.47;72.63;98906.97;5027839;28;20048;-51
2022/11/17 08:08:29;;;;;;;33.05;14.20;;;;;;;0.81;72.42;98964.69;5011925;28;20045;-51
2022/11/17 08:10:55;;;;;;;30.05;12.23;;;;;;;0.71;72.06;98954.53;5039956;28;20527;-53
2022/11/17 08:13:21;;;;;;;31.67;12.93;;;;;;;0.72;72.12;98964.75;5029608;28;20049;-54
2022/11/17 08:15:47;;;;;;;22.25;10.68;;;;;;;0.65;71.77;98929.84;5011945;28;20050;-53
2022/11/17 08:18:13;;;;;;;26.55;11.32;;;;;;;0.75;71.87;98956.19;5029313;28;20053;-53
2022/11/17 08:20:39;;;;;;;18.80;10.65;;;;;;;0.82;71.28;98957.88;5044836;28;20060;-49
2022/11/17 08:23:05;;;;;;;15.80;9.40;;;;;;;0.91;71.14;98957.78;5028245;28;20042;-53
2022/11/17 08:25:30;;;;;;;15.25;9.50;;;;;;;0.91;70.69;98956.94;5008918;28;20045;-50
2022/11/17 08:27:57;;;;;;;14.98;7.07;;;;;;;0.49;69.94;98920.56;5027882;28;20045;-49
2022/11/17 08:30:24;;;;;;;12.27;7.18;;;;;;;0.74;69.91;98963.03;5027348;28;20045;-52
2022/11/17 08:32:51;;;;;;;15.52;7.40;;;;;;;0.76;69.22;98963.03;5027077;28;20432;-55
2022/11/17 08:35:19;;;;;;;15.50;7.13;;;;;;;0.46;68.77;98919.75;4995090;28;20049;-50
2022/11/17 08:37:45;;;;;;;18.17;7.18;;;;;;;0.87;68.51;98957.84;5026844;28;20041;-54
2022/11/17 08:40:12;;;;;;;14.25;7.28;;;;;;;0.99;68.33;98960.31;5028956;28;20056;-51
2022/11/17 08:42:38;;;;;;;11.07;7.15;;;;;;;1.23;67.69;98926.81;5027021;28;20037;-52
2022/11/17 08:45:06;;;;;;;14.98;7.57;;;;;;;1.47;67.31;98959.88;5027328;28;20045;-51
2022/11/17 08:47:33;;;;;;;12.30;7.72;;;;;;;1.44;67.15;98959.06;5011478;28;20072;-53
2022/11/17 08:49:59;;;;;;;16.00;8.38;;;;;;;1.44;67.08;98959.06;5004726;28;20049;-54
2022/11/17 08:52:26;;;;;;;20.63;11.32;;;;;;;1.40;66.68;98955.69;5033668;28;20064;-56
2022/11/17 08:54:52;;;;;;;23.70;12.38;;;;;;;1.23;66.46;98963.50;5028606;28;20068;-55
2022/11/17 08:57:20;;;;;;;27.10;12.48;;;;;;;1.16;66.61;98958.44;5026921;28;20103;-52
2022/11/17 08:59:47;;;;;;;28.85;13.13;;;;;;;1.04;66.28;98953.44;5029013;28;20090;-54
2022/11/17 09:02:13;;;;;;;23.52;13.68;;;;;;;1.09;66.26;98955.09;5021294;28;20091;-52
2022/11/17 09:04:39;;;;;;;26.13;13.20;;;;;;;1.06;66.37;98949.13;5024456;28;20050;-51
2022/11/17 09:07:05;;;;;;;26.30;13.73;;;;;;;0.78;66.63;98903.34;5023475;28;20073;-56
2022/11/17 09:09:32;;;;;;;31.10;15.57;;;;;;;0.89;66.26;98925.41;5020106;28;20126;-52
2022/11/17 09:11:58;;;;;;;23.88;12.27;;;;;;;1.15;66.47;98944.78;5027274;28;20461;-51
2022/11/17 09:14:24;;;;;;;23.67;12.80;;;;;;;1.14;66.22;98955.91;5008019;28;20217;-50
2022/11/17 09:16:51;;;;;;;22.30;12.75;;;;;;;1.11;65.70;98949.94;5025294;28;20038;-51
2022/11/17 09:19:17;;;;;;;21.95;11.55;;;;;;;0.90;65.77;98914.28;5015906;28;20042;-50
2022/11/17 09:21:42;;;;;;;18.88;10.48;;;;;;;1.05;65.11;98958.53;5026118;28;20378;-55
2022/11/17 09:24:08;;;;;;;15.45;8.48;;;;;;;0.94;65.02;98944.16;5013591;28;20049;-53
2022/11/17 09:26:39;;;;;;;12.98;8.32;;;;;;;0.99;64.93;98953.47;5043574;28;20098;-54
2022/11/17 09:29:09;;;;;;;17.25;8.63;;;;;;;0.85;64.80;98916.91;5029245;28;20053;-55
2022/11/17 09:31:35;;;;;;;18.70;8.20;;;;;;;0.99;63.98;98945.81;5030494;28;20104;-53
2022/11/17 09:34:01;;;;;;;12.45;6.82;;;;;;;1.05;64.25;98942.31;5030695;28;20068;-51
2022/11/17 09:36:27;;;;;;;17.08;8.25;;;;;;;1.06;63.70;98938.91;5030683;28;20517;-53
2022/11/17 09:38:53;;;;;;;15.13;7.35;;;;;;;0.95;63.90;98907.44;5038534;28;20061;-49
2022/11/17 09:41:26;;;;;;;14.43;7.22;;;;;;;1.07;63.62;98938.06;5022877;28;20038;-51
2022/11/17 09:44:16;;;;;;;14.57;7.68;;;;;;;1.06;63.41;98929.53;5012475;28;20053;-52
2022/11/17 09:47:08;;;;;;;13.65;5.65;;;;;;;0.99;63.83;98935.56;5028594;28;20034;-55
2022/11/17 09:49:48;;;;;;;11.65;5.68;;;;;;;0.98;63.95;98938.13;5028765;28;20080;-54
2022/11/17 09:52:31;;;;;;;9.68;6.00;;;;;;;0.93;63.76;98935.63;5026028;28;20065;-54
2022/11/17 09:55:00;;;;;;;10.80;5.90;;;;;;;0.94;63.96;98941.59;5021193;28;20042;-50
2022/11/17 09:57:42;;;;;;;10.32;5.28;;;;;;;0.90;63.45;98942.44;5018311;28;20065;-51
2022/11/17 10:00:17;;;;;;;8.15;4.53;;;;;;;0.87;63.63;98937.38;5006763;28;20073;-53
2022/11/17 10:02:44;;;;;;;11.25;4.47;;;;;;;0.72;63.54;98903.38;5040026;28;20037;-50
2022/11/17 10:05:33;;;;;;;9.32;4.97;;;;;;;0.94;63.23;98939.03;5027880;28;20040;-50
2022/11/17 10:08:03;;;;;;;8.98;4.28;;;;;;;0.93;62.77;98938.19;5011057;28;20575;-52
2022/11/17 10:10:43;;;;;;;5.82;3.67;;;;;;;0.76;62.99;98911.88;5018794;28;20049;-53
2022/11/17 10:13:23;;;;;;;9.18;3.83;;;;;;;1.04;62.57;98944.06;5009357;28;20042;-51
2022/11/17 10:15:52;;;;;;;10.43;5.18;;;;;;;1.02;62.54;98945.78;5017384;28;20121;-57
2022/11/17 10:18:17;;;;;;;16.20;6.75;;;;;;;1.01;62.36;98941.50;5022104;28;20052;-53
2022/11/17 10:20:44;;;;;;;13.57;5.50;;;;;;;0.99;62.86;98950.94;5028519;28;20451;-58
2022/11/17 10:23:15;;;;;;;10.20;5.47;;;;;;;0.92;62.80;98944.16;5020037;28;20038;-54
2022/11/17 10:25:46;;;;;;;8.27;4.55;;;;;;;0.86;63.41;98936.50;4979885;28;20041;-54
2022/11/17 10:28:29;;;;;;;9.45;4.68;;;;;;;0.79;63.49;98940.81;5025846;28;20037;-54
2022/11/17 10:30:59;;;;;;;8.38;4.68;;;;;;;0.73;63.52;98938.28;5016532;28;20045;-50
2022/11/17 10:33:38;;;;;;;;;;;;;;;0.72;63.40;98941.75;5001139;28;20045;-51
2022/11/17 10:36:27;;;;;;;7.35;3.30;;;;;;;0.59;63.50;98944.38;5004976;28;20475;-56
2022/11/17 10:38:54;;;;;;;7.32;3.42;;;;;;;0.52;63.89;98947.84;5028644;28;20045;-55
2022/11/17 10:41:41;;;;;;;6.20;3.45;;;;;;;0.49;63.76;98943.59;5022418;28;20052;-54
2022/11/17 10:44:21;;;;;;;5.03;2.63;;;;;;;0.45;63.64;98947.03;4974846;28;1303912;-51
2022/11/17 10:46:57;;;;;;;4.10;2.60;;;;;;;0.35;63.64;98943.69;5027925;28;20041;-52
2022/11/17 10:49:26;;;;;;;5.88;2.92;;;;;;;0.31;63.69;98943.69;5023569;28;20480;-51
2022/11/17 10:52:05;;;;;;;5.90;3.00;;;;;;;0.15;63.83;98919.06;5029246;28;20047;-57
2022/11/17 10:54:31;;;;;;;4.53;2.80;;;;;;;0.29;63.34;98947.97;5030054;28;20041;-56
2022/11/17 10:56:59;;;;;;;5.85;2.97;;;;;;;0.10;63.61;98908.88;5028997;28;20470;-55
2022/11/17 10:59:31;;;;;;;5.20;2.63;;;;;;;0.27;63.04;98944.56;5030635;28;20037;-54
2022/11/17 11:02:25;;;;;;;5.70;3.45;;;;;;;0.29;63.26;98943.69;5023227;28;20042;-59
2022/11/17 11:05:07;;;;;;;5.05;3.10;;;;;;;0.31;63.51;98943.69;5021266;28;20051;-51
2022/11/17 11:07:33;;;;;;;5.57;3.25;;;;;;;0.31;63.50;98946.25;5021708;28;20050;-55
2022/11/17 11:10:11;;;;;;;6.28;3.10;;;;;;;0.36;63.85;98945.38;5020272;28;20033;-52
2022/11/17 11:13:10;;;;;;;7.20;3.70;;;;;;;0.35;64.00;98945.38;5022067;28;20187;-53
2022/11/17 11:15:36;;;;;;;;;;;;;;;0.26;63.77;98950.56;5020855;28;20115;-53
2022/11/17 11:18:13;;;;;;;6.15;3.30;;;;;;;0.15;64.69;98947.19;5027153;28;19917;-52
2022/11/17 11:20:58;;;;;;;7.95;3.53;;;;;;;-0.11;64.65;98931.97;5028999;28;20505;-56
2022/11/17 11:23:46;;;;;;;8.02;3.20;;;;;;;-0.01;64.76;98954.91;5030186;28;20056;-58
2022/11/17 11:26:27;;;;;;;7.22;3.28;;;;;;;-0.05;65.16;98954.91;5042421;28;20041;-56
2022/11/17 11:29:11;;;;;;;7.03;3.15;;;;;;;-0.07;64.99;98949.84;5027332;28;20037;-56
2022/11/17 11:31:50;;;;;;;6.63;3.05;;;;;;;-0.08;65.17;98955.78;5029066;28;20037;-53
2022/11/17 11:34:31;;;;;;;4.85;2.95;;;;;;;-0.07;65.32;98957.50;5023471;28;20509;-55
2022/11/17 11:37:17;;;;;;;9.10;3.50;;;;;;;-0.05;65.76;98949.81;4985802;28;20045;-51
2022/11/17 11:40:04;;;;;;;6.32;3.25;;;;;;;-0.06;65.43;98948.97;4994835;28;20410;-56
2022/11/17 11:42:54;;;;;;;5.47;2.97;;;;;;;-0.28;65.66;98924.38;5026414;28;20048;-53
2022/11/17 11:45:38;;;;;;;;;;;;;;;-0.12;65.51;98954.09;5017609;28;20061;-53
2022/11/17 11:48:42;;;;;;;8.38;3.30;;;;;;;-0.18;65.51;98954.13;5026235;28;20413;-56
2022/11/17 11:51:26;;;;;;;6.38;3.17;;;;;;;-0.15;65.29;98958.34;4947694;28;20126;-53
2022/11/17 11:54:01;;;;;;;7.55;3.25;;;;;;;-0.16;64.89;98954.94;4965099;28;20042;-52
2022/11/17 11:56:36;;;;;;;7.95;3.60;;;;;;;-0.11;65.04;98958.38;4947849;28;20109;-57
2022/11/17 11:59:05;;;;;;;7.55;3.13;;;;;;;-0.04;64.82;98947.25;4939434;28;20074;-54
2022/11/17 12:01:36;;;;;;;;;;;;;;;0.02;64.73;98955.75;4934878;28;20073;-54
2022/11/17 12:04:20;;;;;;;8.18;3.17;;;;;;;0.05;65.03;98958.31;4948021;28;19917;-56
2022/11/17 12:06:58;;;;;;;6.60;3.47;;;;;;;0.14;64.80;98954.00;4944071;28;20054;-55
2022/11/17 12:09:32;;;;;;;6.90;3.15;;;;;;;0.15;64.85;98950.59;4955238;28;20522;-52
2022/11/17 12:11:59;;;;;;;7.35;3.05;;;;;;;0.15;64.39;98953.16;4964998;28;20050;-56
2022/11/17 12:14:27;;;;;;;6.00;3.17;;;;;;;0.12;64.19;98957.41;4964951;28;20129;-52